Ijsselborg — PBTT — position and weather

sailwx.info

Track history (hours):
 
Tides and Currents Weather Stations Pressure Air Temp Water Temp Dewpoint Dewpoint Depression Visibility Wind Speed Wind Dir Waves Ship Positions

Ijsselborg

Last reported at 2018-Feb-04 13:53 UTC. Time now 2018-Feb-19 04:15 UTC.
Position N 49°53' W 005°09'.
Warning: this ship's position is 14 days out of date.

Length 143 m; draft 7.5 m.

Type: Cargo ship. MMSI: 244707000.

Date/timePositionNaut miles runAvg speedWind from/ knotsBaromVisibWave heightAir tempDewpointWater temp
2018-Feb-04 13:53N 49°53' W 005°09'1015.1
2018-Feb-04 13:13N 49°55' W 004°54'314.7
2018-Feb-04 13:00N 49°55' W 004°49'714.6
2018-Feb-04 12:30N 49°57' W 004°38'714.3
2018-Feb-04 11:59N 49°58' W 004°27'713.9
2018-Feb-04 11:31N 49°60' W 004°17'2013.1
2018-Feb-04 10:00N 50°04' W 003°47'1212.0
2018-Feb-04 09:00N 50°06' W 003°28'611.9
2018-Feb-04 08:30N 50°07' W 003°19'510.9
2018-Feb-04 08:00N 50°08' W 003°11'611.3
2018-Feb-04 07:30N 50°09' W 003°02'612.0
2018-Feb-04 07:00N 50°10' W 002°53'612.7
2018-Feb-04 06:31N 50°12' W 002°43'1113.9
2018-Feb-04 05:42N 50°14' W 002°26'7314.4
2018-Feb-04 00:38N 50°28' W 000°34'210.2
2018-Feb-04 00:24N 50°29' W 000°30'510.1
2018-Feb-03 23:56N 50°30' W 000°23'410.1
2018-Feb-03 23:30N 50°31' W 000°16'5 9.9
2018-Feb-03 23:01N 50°31' W 000°09'510.0
2018-Feb-03 22:31N 50°32' W 000°01'510.3
2018-Feb-03 22:01N 50°34' E 000°07'510.8
2018-Feb-03 21:31N 50°35' E 000°15'611.6
2018-Feb-03 21:01N 50°37' E 000°24'612.7
2018-Feb-03 20:31N 50°39' E 000°33'713.4
2018-Feb-03 20:00N 50°42' E 000°42'2113.6
2018-Feb-03 18:28N 50°54' E 001°09'613.0
2018-Feb-03 18:01N 50°58' E 001°17'612.3
2018-Feb-03 17:31N 51°02' E 001°24'611.4
2018-Feb-03 17:01N 51°06' E 001°31'10 9.6
2018-Feb-03 16:01N 51°12' E 001°43'5 9.3
2018-Feb-03 15:30N 51°16' E 001°47'5 9.3
2018-Feb-03 15:00N 51°20' E 001°50'5 9.8
2018-Feb-03 14:30N 51°25' E 001°53'510.3
2018-Feb-03 14:01N 51°29' E 001°58'611.3
2018-Feb-03 13:30N 51°33' E 002°04'611.6
2018-Feb-03 13:00N 51°37' E 002°11'8912.4
2018-Feb-03 05:49N 52°46' E 003°42'310.0
2018-Feb-03 05:29N 52°49' E 003°45'5 9.9
2018-Feb-03 04:58N 52°53' E 003°50'1010.2
2018-Feb-03 04:00N 52°60' E 004°02'36411.2
2018-Feb-01 19:31N 57°48' E 010°34'510.5
2018-Feb-01 19:01N 57°49' E 010°44'510.6
2018-Feb-01 18:31N 57°43' E 010°43'4 7.4
2018-Feb-01 17:58N 57°41' E 010°36'0 0.1
2018-Feb-01 17:31N 57°41' E 010°36'0 0.0
2018-Feb-01 17:01N 57°41' E 010°36'0 0.0
2018-Feb-01 16:31N 57°41' E 010°36'0 0.0
2018-Feb-01 15:58N 57°41' E 010°36'0 0.1
2018-Feb-01 15:28N 57°41' E 010°36'0 0.0
2018-Feb-01 15:01N 57°41' E 010°36'0 0.0
2018-Feb-01 13:31N 57°41' E 010°36'0 0.0
2018-Feb-01 13:00N 57°41' E 010°36'0 0.0
2018-Feb-01 12:30N 57°41' E 010°36'0 0.0
2018-Feb-01 12:01N 57°41' E 010°36'0 0.0
2018-Feb-01 10:57N 57°41' E 010°36'0 0.1
2018-Feb-01 10:30N 57°41' E 010°36'0 0.0
2018-Feb-01 10:01N 57°41' E 010°36'0 0.0
2018-Feb-01 09:31N 57°41' E 010°36'0 0.0
2018-Feb-01 09:00N 57°41' E 010°36'0 0.0
2018-Feb-01 08:30N 57°41' E 010°36'0 0.0
2018-Feb-01 07:30N 57°41' E 010°36'0 0.0
2018-Feb-01 07:00N 57°41' E 010°36'0 0.0
2018-Feb-01 06:30N 57°41' E 010°36'0 0.0
2018-Feb-01 05:57N 57°41' E 010°36'0 0.0
2018-Feb-01 05:30N 57°41' E 010°36'0 0.0
2018-Feb-01 05:00N 57°41' E 010°36'0 0.1
2018-Feb-01 04:30N 57°41' E 010°36'0 0.0
2018-Feb-01 03:57N 57°41' E 010°36'0 0.0
2018-Feb-01 03:00N 57°41' E 010°36'0 0.0
2018-Feb-01 02:27N 57°41' E 010°36'0 0.0
2018-Feb-01 02:00N 57°41' E 010°36'0 0.0
2018-Feb-01 01:30N 57°41' E 010°36'0 0.0
2018-Feb-01 01:00N 57°41' E 010°36'0 0.0
2018-Feb-01 00:30N 57°41' E 010°36'0 0.0
2018-Feb-01 00:00N 57°41' E 010°36'0 0.0
2018-Jan-31 23:00N 57°41' E 010°36'0 0.0
2018-Jan-31 22:27N 57°41' E 010°36'7 5.1
2018-Jan-31 21:00N 57°37' E 010°48'611.3
2018-Jan-31 20:30N 57°35' E 010°58'611.5
2018-Jan-31 20:00N 57°32' E 011°07'611.2
2018-Jan-31 19:30N 57°30' E 011°17'510.8
2018-Jan-31 19:00N 57°27' E 011°26'611.3
2018-Jan-31 18:30N 57°22' E 011°30'611.8
2018-Jan-31 18:00N 57°17' E 011°33'611.8
2018-Jan-31 17:30N 57°11' E 011°37'611.4
2018-Jan-31 17:00N 57°06' E 011°41'611.1
2018-Jan-31 16:30N 57°01' E 011°45'4811.7
2018-Jan-31 12:23N 56°17' E 012°20'512.4
2018-Jan-31 12:00N 56°13' E 012°25'713.2
2018-Jan-31 11:31N 56°08' E 012°32'714.4
2018-Jan-31 11:00N 56°02' E 012°40'713.3
2018-Jan-31 10:30N 55°56' E 012°44'713.1
2018-Jan-31 10:00N 55°49' E 012°44'612.5
2018-Jan-31 09:30N 55°43' E 012°41'612.3
2018-Jan-31 09:00N 55°37' E 012°42'510.7
2018-Jan-31 08:30N 55°32' E 012°43'612.8
2018-Jan-31 08:00N 55°25' E 012°41'612.7
2018-Jan-31 07:30N 55°19' E 012°40'611.8
2018-Jan-31 07:00N 55°16' E 012°50'612.0
2018-Jan-31 06:30N 55°12' E 012°57'10811.5
2018-Jan-30 21:05N 53°39' E 014°33'211.4
2018-Jan-30 20:57N 53°38' E 014°34'511.0
2018-Jan-30 20:30N 53°33' E 014°36'5 9.3
2018-Jan-30 20:00N 53°29' E 014°37'4 7.5
2018-Jan-30 19:30N 53°25' E 014°37'0 0.9
2018-Jan-30 19:00N 53°24' E 014°37'0 0.0
2018-Jan-30 18:30N 53°24' E 014°37'0 0.0
2018-Jan-30 18:00N 53°24' E 014°37'0 0.0
2018-Jan-30 17:30N 53°24' E 014°37'0 0.0
2018-Jan-30 17:00N 53°24' E 014°37'0 0.0
2018-Jan-30 16:30N 53°24' E 014°37'0 0.0
2018-Jan-30 16:00N 53°24' E 014°37'0 0.0
2018-Jan-30 15:30N 53°24' E 014°37'0 0.0
2018-Jan-30 15:00N 53°24' E 014°37'0 0.0
2018-Jan-30 14:30N 53°24' E 014°37'0 0.0
2018-Jan-30 13:30N 53°24' E 014°37'0 0.0
2018-Jan-30 13:00N 53°24' E 014°37'0 0.0
2018-Jan-30 12:30N 53°24' E 014°37'0 0.0
2018-Jan-30 12:00N 53°24' E 014°37'0 0.0
2018-Jan-30 11:30N 53°24' E 014°37'0 0.0
2018-Jan-30 10:30N 53°24' E 014°37'0 0.0
2018-Jan-30 09:30N 53°24' E 014°37'0 0.0
2018-Jan-30 09:00N 53°24' E 014°37'0 0.0
2018-Jan-30 08:30N 53°24' E 014°37'0 0.0
2018-Jan-30 08:00N 53°24' E 014°37'0 0.0
2018-Jan-30 07:30N 53°24' E 014°37'0 0.0
2018-Jan-30 07:00N 53°24' E 014°37'0 0.0
2018-Jan-30 06:30N 53°24' E 014°37'0 0.0
2018-Jan-30 06:00N 53°24' E 014°37'0 0.0
2018-Jan-30 05:30N 53°24' E 014°37'0 0.0
2018-Jan-30 05:00N 53°24' E 014°37'0 0.0
2018-Jan-30 04:30N 53°24' E 014°37'0 0.0
2018-Jan-30 04:00N 53°24' E 014°37'0 0.0
2018-Jan-30 03:30N 53°24' E 014°37'0 0.0
2018-Jan-30 03:00N 53°24' E 014°37'0 0.0
2018-Jan-30 02:30N 53°24' E 014°37'0 0.0
2018-Jan-30 02:00N 53°24' E 014°37'0 0.0
2018-Jan-30 01:30N 53°24' E 014°37'0 0.0
2018-Jan-30 01:00N 53°24' E 014°37'0 0.0
2018-Jan-30 00:30N 53°24' E 014°37'0 0.0
2018-Jan-30 00:00N 53°24' E 014°37'0 0.0
2018-Jan-29 23:30N 53°24' E 014°37'0 0.0
2018-Jan-29 23:00N 53°24' E 014°37'0 0.0
2018-Jan-29 22:30N 53°24' E 014°37'0 0.0
2018-Jan-29 22:00N 53°24' E 014°37'0 0.0
2018-Jan-29 21:30N 53°24' E 014°37'0 0.0
2018-Jan-29 21:00N 53°24' E 014°37'0 0.0
2018-Jan-29 20:30N 53°24' E 014°37'0 0.0
2018-Jan-29 20:00N 53°24' E 014°37'0 0.0
2018-Jan-29 19:30N 53°24' E 014°37'0 0.0
2018-Jan-29 19:00N 53°24' E 014°37'0 0.0
2018-Jan-29 18:27N 53°24' E 014°37'0 0.0
2018-Jan-29 18:00N 53°24' E 014°37'0 0.0
2018-Jan-29 17:30N 53°24' E 014°37'0 0.0
2018-Jan-29 17:00N 53°24' E 014°37'0 0.0
2018-Jan-29 16:30N 53°24' E 014°37'0 0.0
2018-Jan-29 16:00N 53°24' E 014°37'0 0.0
2018-Jan-29 15:30N 53°24' E 014°37'0 0.0
2018-Jan-29 15:00N 53°24' E 014°37'0 0.0
2018-Jan-29 14:30N 53°24' E 014°37'0 0.0
2018-Jan-29 14:00N 53°24' E 014°37'0 0.0
2018-Jan-29 13:30N 53°24' E 014°37'0 0.0
2018-Jan-29 13:00N 53°24' E 014°37'0 0.0
2018-Jan-29 12:30N 53°24' E 014°37'0 0.0
2018-Jan-29 12:00N 53°24' E 014°37'0 0.0
2018-Jan-29 11:27N 53°24' E 014°37'0 0.1
2018-Jan-29 11:00N 53°24' E 014°37'0 0.0
2018-Jan-29 10:30N 53°24' E 014°37'0 0.0
2018-Jan-29 10:00N 53°24' E 014°37'0 0.0
2018-Jan-29 09:30N 53°24' E 014°37'0 0.0
2018-Jan-29 09:00N 53°24' E 014°37'0 0.0
2018-Jan-29 08:30N 53°24' E 014°37'0 0.0
2018-Jan-29 08:00N 53°24' E 014°37'0 0.0
2018-Jan-29 07:30N 53°24' E 014°37'0 0.0
2018-Jan-29 07:00N 53°24' E 014°37'0 0.0
2018-Jan-29 06:30N 53°24' E 014°37'0 0.0
2018-Jan-29 06:00N 53°24' E 014°37'0 0.0
2018-Jan-29 05:30N 53°24' E 014°37'0 0.0
2018-Jan-29 05:00N 53°24' E 014°37'0 0.0
2018-Jan-29 04:30N 53°24' E 014°37'0 0.0
2018-Jan-29 04:00N 53°24' E 014°37'0 0.0
2018-Jan-29 03:30N 53°24' E 014°37'0 0.0
2018-Jan-29 03:00N 53°24' E 014°37'0 0.0
2018-Jan-29 02:30N 53°24' E 014°37'0 0.0
2018-Jan-29 02:00N 53°24' E 014°37'0 0.0
2018-Jan-29 01:30N 53°24' E 014°37'0 0.0
2018-Jan-29 01:00N 53°24' E 014°37'0 0.0
2018-Jan-29 00:27N 53°24' E 014°37'0 0.0
2018-Jan-29 00:00N 53°24' E 014°37'0 0.0
2018-Jan-28 23:30N 53°24' E 014°37'0 0.0
2018-Jan-28 23:00N 53°24' E 014°37'0 0.0
2018-Jan-28 22:30N 53°24' E 014°37'0 0.0
2018-Jan-28 22:00N 53°24' E 014°37'0 0.0
2018-Jan-28 21:30N 53°24' E 014°37'0 0.0
2018-Jan-28 21:00N 53°24' E 014°37'0 0.0
2018-Jan-28 20:30N 53°24' E 014°37'0 0.0
2018-Jan-28 20:00N 53°24' E 014°37'0 0.0
2018-Jan-28 19:30N 53°24' E 014°37'0 0.0
2018-Jan-28 19:00N 53°24' E 014°37'0 0.0
2018-Jan-28 18:30N 53°24' E 014°37'0 0.0
2018-Jan-28 18:00N 53°24' E 014°37'0 0.0
2018-Jan-28 17:27N 53°24' E 014°37'0 0.0
2018-Jan-28 17:00N 53°24' E 014°37'0 0.0
2018-Jan-28 16:30N 53°24' E 014°37'0 0.0
2018-Jan-28 15:57N 53°24' E 014°37'0 0.0
2018-Jan-28 15:30N 53°24' E 014°37'0 0.0
2018-Jan-28 15:00N 53°24' E 014°37'0 0.0
2018-Jan-28 14:30N 53°24' E 014°37'0 0.0
2018-Jan-28 14:00N 53°24' E 014°37'0 0.0
2018-Jan-28 13:30N 53°24' E 014°37'0 0.0
2018-Jan-28 13:00N 53°24' E 014°37'0 0.0
2018-Jan-28 12:30N 53°24' E 014°37'0 0.0
2018-Jan-28 12:00N 53°24' E 014°37'0 0.0
2018-Jan-28 11:30N 53°24' E 014°37'0 0.0
2018-Jan-28 11:00N 53°24' E 014°37'0 0.0
2018-Jan-28 10:30N 53°24' E 014°37'0 0.0
2018-Jan-28 10:00N 53°24' E 014°37'0 0.0
2018-Jan-28 09:30N 53°24' E 014°37'0 0.0
2018-Jan-28 09:00N 53°24' E 014°37'0 0.0
2018-Jan-28 08:30N 53°24' E 014°37'0 0.0
2018-Jan-28 08:00N 53°24' E 014°37'0 0.0
2018-Jan-28 07:30N 53°24' E 014°37'0 0.0
2018-Jan-28 07:00N 53°24' E 014°37'0 0.0
2018-Jan-28 06:30N 53°24' E 014°37'0 0.0
2018-Jan-28 06:00N 53°24' E 014°37'0 0.0
2018-Jan-28 05:30N 53°24' E 014°37'0 0.0
2018-Jan-28 05:00N 53°24' E 014°37'0 0.0
2018-Jan-28 04:30N 53°24' E 014°37'0 0.0
2018-Jan-28 04:00N 53°24' E 014°37'0 0.0
2018-Jan-28 03:30N 53°24' E 014°37'0 0.0
2018-Jan-28 03:00N 53°24' E 014°37'0 0.0
2018-Jan-28 02:30N 53°24' E 014°37'0 0.0
2018-Jan-28 02:00N 53°24' E 014°37'0 0.0
2018-Jan-28 01:30N 53°24' E 014°37'0 0.0
2018-Jan-28 01:00N 53°24' E 014°37'0 0.0
2018-Jan-28 00:30N 53°24' E 014°37'0 0.0
2018-Jan-28 00:00N 53°24' E 014°37'0 0.0
2018-Jan-27 23:30N 53°24' E 014°37'0 0.0
2018-Jan-27 23:00N 53°24' E 014°37'0 0.0
2018-Jan-27 22:30N 53°24' E 014°37'0 0.0
2018-Jan-27 22:00N 53°24' E 014°37'0 0.0
2018-Jan-27 21:30N 53°24' E 014°37'0 0.0
2018-Jan-27 21:00N 53°24' E 014°37'0 0.0
2018-Jan-27 20:30N 53°24' E 014°37'0 0.0
2018-Jan-27 20:00N 53°24' E 014°37'0 0.0
2018-Jan-27 19:30N 53°24' E 014°37'0 0.0
2018-Jan-27 19:00N 53°24' E 014°37'0 0.0
2018-Jan-27 18:30N 53°24' E 014°37'0 0.0
2018-Jan-27 18:00N 53°24' E 014°37'0 0.0
2018-Jan-27 17:30N 53°24' E 014°37'0 0.0
2018-Jan-27 17:00N 53°24' E 014°37'0 0.0
2018-Jan-27 16:30N 53°24' E 014°37'0 0.0
2018-Jan-27 16:00N 53°24' E 014°37'0 0.0
2018-Jan-27 15:30N 53°24' E 014°37'0 0.0
2018-Jan-27 15:00N 53°24' E 014°37'0 0.0
2018-Jan-27 14:30N 53°24' E 014°37'0 0.0
2018-Jan-27 14:00N 53°24' E 014°37'0 0.0
2018-Jan-27 13:30N 53°24' E 014°37'0 0.0
2018-Jan-27 13:00N 53°24' E 014°37'0 0.0
2018-Jan-27 12:30N 53°24' E 014°37'0 0.0
2018-Jan-27 12:00N 53°24' E 014°37'0 0.0
2018-Jan-27 11:30N 53°25' E 014°37'0 0.0
2018-Jan-27 11:00N 53°25' E 014°37'0 0.0
2018-Jan-27 10:30N 53°25' E 014°37'0 0.0
2018-Jan-27 10:00N 53°25' E 014°37'0 0.0
2018-Jan-27 09:30N 53°25' E 014°37'0 0.0
2018-Jan-27 09:00N 53°25' E 014°37'0 0.0
2018-Jan-27 08:30N 53°25' E 014°37'0 0.0
2018-Jan-27 08:00N 53°25' E 014°37'0 0.0
2018-Jan-27 07:30N 53°24' E 014°37'0 0.0
2018-Jan-27 07:00N 53°25' E 014°37'0 0.0
2018-Jan-27 06:30N 53°25' E 014°37'0 0.0
2018-Jan-27 06:00N 53°25' E 014°37'0 0.0
2018-Jan-27 05:30N 53°25' E 014°37'0 0.0
2018-Jan-27 05:00N 53°25' E 014°37'0 0.0
2018-Jan-27 04:30N 53°25' E 014°37'0 0.0
2018-Jan-27 04:00N 53°25' E 014°37'0 0.0
2018-Jan-27 03:30N 53°25' E 014°37'0 0.0
2018-Jan-27 03:00N 53°25' E 014°37'0 0.0
2018-Jan-27 02:30N 53°25' E 014°37'0 0.0
2018-Jan-27 02:00N 53°25' E 014°37'0 0.0
2018-Jan-27 01:30N 53°25' E 014°37'0 0.0
2018-Jan-27 01:00N 53°24' E 014°37'0 0.0
2018-Jan-27 00:30N 53°24' E 014°37'0 0.0
2018-Jan-27 00:00N 53°24' E 014°37'0 0.0
2018-Jan-26 23:30N 53°25' E 014°37'0 0.0
2018-Jan-26 23:00N 53°25' E 014°37'0 0.0
2018-Jan-26 22:27N 53°25' E 014°37'0 0.0
2018-Jan-26 22:00N 53°24' E 014°37'0 0.0
2018-Jan-26 21:30N 53°25' E 014°37'0 0.0
2018-Jan-26 21:00N 53°25' E 014°37'0 0.0
2018-Jan-26 20:30N 53°25' E 014°37'0 0.0
2018-Jan-26 20:00N 53°25' E 014°37'1 2.5
2018-Jan-26 19:30N 53°26' E 014°36'4 7.4
2018-Jan-26 19:00N 53°29' E 014°37'4 7.6
2018-Jan-26 18:30N 53°33' E 014°36'510.0
2018-Jan-26 18:00N 53°38' E 014°34'510.5
2018-Jan-26 17:30N 53°42' E 014°29'61 9.8
2018-Jan-26 11:14N 54°43' E 014°41'415.4
2018-Jan-26 10:59N 54°46' E 014°45'613.3
2018-Jan-26 10:30N 54°49' E 014°55'815.0
2018-Jan-26 10:01N 54°54' E 015°04'815.1
2018-Jan-26 09:30N 55°00' E 015°12'714.0
2018-Jan-26 09:00N 55°06' E 015°19'713.9
2018-Jan-26 08:30N 55°12' E 015°26'713.7
2018-Jan-26 08:00N 55°17' E 015°34'713.6
2018-Jan-26 07:31N 55°23' E 015°41'714.1
2018-Jan-26 07:00N 55°28' E 015°48'815.5
2018-Jan-26 06:30N 55°35' E 015°56'815.4
2018-Jan-26 06:00N 55°41' E 016°04'815.3
2018-Jan-26 05:30N 55°47' E 016°12'815.2
2018-Jan-26 05:00N 55°53' E 016°20'815.1
2018-Jan-26 04:30N 55°59' E 016°28'714.9
2018-Jan-26 04:00N 56°05' E 016°36'714.6
2018-Jan-26 03:30N 56°10' E 016°46'815.2
2018-Jan-26 03:00N 56°18' E 016°49'815.2
2018-Jan-26 02:30N 56°25' E 016°53'12114.7
2018-Jan-25 18:16N 58°25' E 017°25'414.7
2018-Jan-25 18:00N 58°29' E 017°25'814.6
2018-Jan-25 17:28N 58°37' E 017°26'511.4
2018-Jan-25 17:00N 58°37' E 017°15'510.9
2018-Jan-25 16:30N 58°40' E 017°07'0 0.3
2018-Jan-25 16:00N 58°40' E 017°07'0 0.0
2018-Jan-25 15:30N 58°40' E 017°07'0 0.0
2018-Jan-25 15:00N 58°40' E 017°07'0 0.0
2018-Jan-25 14:30N 58°40' E 017°07'0 0.0
2018-Jan-25 14:00N 58°40' E 017°07'  
Track history (hours):
 
Tides and Currents Weather Stations Pressure Air Temp Water Temp Dewpoint Dewpoint Depression Visibility Wind Speed Wind Dir Waves Ship Positions

Ijsselborg

Last reported at 2018-Feb-04 13:53 UTC. Time now 2018-Feb-19 04:15 UTC.
Position N 49°53' W 005°09'.
Warning: this ship's position is 14 days out of date.

Length 143 m; draft 7.5 m.

Type: Cargo ship. MMSI: 244707000.

Date/timePositionNaut miles runAvg speedWind from/ knotsBaromVisibWave heightAir tempDewpointWater temp
2018-Feb-04 13:53N 49°53' W 005°09'1015.1
2018-Feb-04 13:13N 49°55' W 004°54'314.7
2018-Feb-04 13:00N 49°55' W 004°49'714.6
2018-Feb-04 12:30N 49°57' W 004°38'714.3
2018-Feb-04 11:59N 49°58' W 004°27'713.9
2018-Feb-04 11:31N 49°60' W 004°17'2013.1
2018-Feb-04 10:00N 50°04' W 003°47'1212.0
2018-Feb-04 09:00N 50°06' W 003°28'611.9
2018-Feb-04 08:30N 50°07' W 003°19'510.9
2018-Feb-04 08:00N 50°08' W 003°11'611.3
2018-Feb-04 07:30N 50°09' W 003°02'612.0
2018-Feb-04 07:00N 50°10' W 002°53'612.7
2018-Feb-04 06:31N 50°12' W 002°43'1113.9
2018-Feb-04 05:42N 50°14' W 002°26'7314.4
2018-Feb-04 00:38N 50°28' W 000°34'210.2
2018-Feb-04 00:24N 50°29' W 000°30'510.1
2018-Feb-03 23:56N 50°30' W 000°23'410.1
2018-Feb-03 23:30N 50°31' W 000°16'5 9.9
2018-Feb-03 23:01N 50°31' W 000°09'510.0
2018-Feb-03 22:31N 50°32' W 000°01'510.3
2018-Feb-03 22:01N 50°34' E 000°07'510.8
2018-Feb-03 21:31N 50°35' E 000°15'611.6
2018-Feb-03 21:01N 50°37' E 000°24'612.7
2018-Feb-03 20:31N 50°39' E 000°33'713.4
2018-Feb-03 20:00N 50°42' E 000°42'2113.6
2018-Feb-03 18:28N 50°54' E 001°09'613.0
2018-Feb-03 18:01N 50°58' E 001°17'612.3
2018-Feb-03 17:31N 51°02' E 001°24'611.4
2018-Feb-03 17:01N 51°06' E 001°31'10 9.6
2018-Feb-03 16:01N 51°12' E 001°43'5 9.3
2018-Feb-03 15:30N 51°16' E 001°47'5 9.3
2018-Feb-03 15:00N 51°20' E 001°50'5 9.8
2018-Feb-03 14:30N 51°25' E 001°53'510.3
2018-Feb-03 14:01N 51°29' E 001°58'611.3
2018-Feb-03 13:30N 51°33' E 002°04'611.6
2018-Feb-03 13:00N 51°37' E 002°11'8912.4
2018-Feb-03 05:49N 52°46' E 003°42'310.0
2018-Feb-03 05:29N 52°49' E 003°45'5 9.9
2018-Feb-03 04:58N 52°53' E 003°50'1010.2
2018-Feb-03 04:00N 52°60' E 004°02'36411.2
2018-Feb-01 19:31N 57°48' E 010°34'510.5
2018-Feb-01 19:01N 57°49' E 010°44'510.6
2018-Feb-01 18:31N 57°43' E 010°43'4 7.4
2018-Feb-01 17:58N 57°41' E 010°36'0 0.1
2018-Feb-01 17:31N 57°41' E 010°36'0 0.0
2018-Feb-01 17:01N 57°41' E 010°36'0 0.0
2018-Feb-01 16:31N 57°41' E 010°36'0 0.0
2018-Feb-01 15:58N 57°41' E 010°36'0 0.1
2018-Feb-01 15:28N 57°41' E 010°36'0 0.0
2018-Feb-01 15:01N 57°41' E 010°36'0 0.0
2018-Feb-01 13:31N 57°41' E 010°36'0 0.0
2018-Feb-01 13:00N 57°41' E 010°36'0 0.0
2018-Feb-01 12:30N 57°41' E 010°36'0 0.0
2018-Feb-01 12:01N 57°41' E 010°36'0 0.0
2018-Feb-01 10:57N 57°41' E 010°36'0 0.1
2018-Feb-01 10:30N 57°41' E 010°36'0 0.0
2018-Feb-01 10:01N 57°41' E 010°36'0 0.0
2018-Feb-01 09:31N 57°41' E 010°36'0 0.0
2018-Feb-01 09:00N 57°41' E 010°36'0 0.0
2018-Feb-01 08:30N 57°41' E 010°36'0 0.0
2018-Feb-01 07:30N 57°41' E 010°36'0 0.0
2018-Feb-01 07:00N 57°41' E 010°36'0 0.0
2018-Feb-01 06:30N 57°41' E 010°36'0 0.0
2018-Feb-01 05:57N 57°41' E 010°36'0 0.0
2018-Feb-01 05:30N 57°41' E 010°36'0 0.0
2018-Feb-01 05:00N 57°41' E 010°36'0 0.1
2018-Feb-01 04:30N 57°41' E 010°36'0 0.0
2018-Feb-01 03:57N 57°41' E 010°36'0 0.0
2018-Feb-01 03:00N 57°41' E 010°36'0 0.0
2018-Feb-01 02:27N 57°41' E 010°36'0 0.0
2018-Feb-01 02:00N 57°41' E 010°36'0 0.0
2018-Feb-01 01:30N 57°41' E 010°36'0 0.0
2018-Feb-01 01:00N 57°41' E 010°36'0 0.0
2018-Feb-01 00:30N 57°41' E 010°36'0 0.0
2018-Feb-01 00:00N 57°41' E 010°36'0 0.0
2018-Jan-31 23:00N 57°41' E 010°36'0 0.0
2018-Jan-31 22:27N 57°41' E 010°36'7 5.1
2018-Jan-31 21:00N 57°37' E 010°48'611.3
2018-Jan-31 20:30N 57°35' E 010°58'611.5
2018-Jan-31 20:00N 57°32' E 011°07'611.2
2018-Jan-31 19:30N 57°30' E 011°17'510.8
2018-Jan-31 19:00N 57°27' E 011°26'611.3
2018-Jan-31 18:30N 57°22' E 011°30'611.8
2018-Jan-31 18:00N 57°17' E 011°33'611.8
2018-Jan-31 17:30N 57°11' E 011°37'611.4
2018-Jan-31 17:00N 57°06' E 011°41'611.1
2018-Jan-31 16:30N 57°01' E 011°45'4811.7
2018-Jan-31 12:23N 56°17' E 012°20'512.4
2018-Jan-31 12:00N 56°13' E 012°25'713.2
2018-Jan-31 11:31N 56°08' E 012°32'714.4
2018-Jan-31 11:00N 56°02' E 012°40'713.3
2018-Jan-31 10:30N 55°56' E 012°44'713.1
2018-Jan-31 10:00N 55°49' E 012°44'612.5
2018-Jan-31 09:30N 55°43' E 012°41'612.3
2018-Jan-31 09:00N 55°37' E 012°42'510.7
2018-Jan-31 08:30N 55°32' E 012°43'612.8
2018-Jan-31 08:00N 55°25' E 012°41'612.7
2018-Jan-31 07:30N 55°19' E 012°40'611.8
2018-Jan-31 07:00N 55°16' E 012°50'612.0
2018-Jan-31 06:30N 55°12' E 012°57'10811.5
2018-Jan-30 21:05N 53°39' E 014°33'211.4
2018-Jan-30 20:57N 53°38' E 014°34'511.0
2018-Jan-30 20:30N 53°33' E 014°36'5 9.3
2018-Jan-30 20:00N 53°29' E 014°37'4 7.5
2018-Jan-30 19:30N 53°25' E 014°37'0 0.9
2018-Jan-30 19:00N 53°24' E 014°37'0 0.0
2018-Jan-30 18:30N 53°24' E 014°37'0 0.0
2018-Jan-30 18:00N 53°24' E 014°37'0 0.0
2018-Jan-30 17:30N 53°24' E 014°37'0 0.0
2018-Jan-30 17:00N 53°24' E 014°37'0 0.0
2018-Jan-30 16:30N 53°24' E 014°37'0 0.0
2018-Jan-30 16:00N 53°24' E 014°37'0 0.0
2018-Jan-30 15:30N 53°24' E 014°37'0 0.0
2018-Jan-30 15:00N 53°24' E 014°37'0 0.0
2018-Jan-30 14:30N 53°24' E 014°37'0 0.0
2018-Jan-30 13:30N 53°24' E 014°37'0 0.0
2018-Jan-30 13:00N 53°24' E 014°37'0 0.0
2018-Jan-30 12:30N 53°24' E 014°37'0 0.0
2018-Jan-30 12:00N 53°24' E 014°37'0 0.0
2018-Jan-30 11:30N 53°24' E 014°37'0 0.0
2018-Jan-30 10:30N 53°24' E 014°37'0 0.0
2018-Jan-30 09:30N 53°24' E 014°37'0 0.0
2018-Jan-30 09:00N 53°24' E 014°37'0 0.0
2018-Jan-30 08:30N 53°24' E 014°37'0 0.0
2018-Jan-30 08:00N 53°24' E 014°37'0 0.0
2018-Jan-30 07:30N 53°24' E 014°37'0 0.0
2018-Jan-30 07:00N 53°24' E 014°37'0 0.0
2018-Jan-30 06:30N 53°24' E 014°37'0 0.0
2018-Jan-30 06:00N 53°24' E 014°37'0 0.0
2018-Jan-30 05:30N 53°24' E 014°37'0 0.0
2018-Jan-30 05:00N 53°24' E 014°37'0 0.0
2018-Jan-30 04:30N 53°24' E 014°37'0 0.0
2018-Jan-30 04:00N 53°24' E 014°37'0 0.0
2018-Jan-30 03:30N 53°24' E 014°37'0 0.0
2018-Jan-30 03:00N 53°24' E 014°37'0 0.0
2018-Jan-30 02:30N 53°24' E 014°37'0 0.0
2018-Jan-30 02:00N 53°24' E 014°37'0 0.0
2018-Jan-30 01:30N 53°24' E 014°37'0 0.0
2018-Jan-30 01:00N 53°24' E 014°37'0 0.0
2018-Jan-30 00:30N 53°24' E 014°37'0 0.0
2018-Jan-30 00:00N 53°24' E 014°37'0 0.0
2018-Jan-29 23:30N 53°24' E 014°37'0 0.0
2018-Jan-29 23:00N 53°24' E 014°37'0 0.0
2018-Jan-29 22:30N 53°24' E 014°37'0 0.0
2018-Jan-29 22:00N 53°24' E 014°37'0 0.0
2018-Jan-29 21:30N 53°24' E 014°37'0 0.0
2018-Jan-29 21:00N 53°24' E 014°37'0 0.0
2018-Jan-29 20:30N 53°24' E 014°37'0 0.0
2018-Jan-29 20:00N 53°24' E 014°37'0 0.0
2018-Jan-29 19:30N 53°24' E 014°37'0 0.0
2018-Jan-29 19:00N 53°24' E 014°37'0 0.0
2018-Jan-29 18:27N 53°24' E 014°37'0 0.0
2018-Jan-29 18:00N 53°24' E 014°37'0 0.0
2018-Jan-29 17:30N 53°24' E 014°37'0 0.0
2018-Jan-29 17:00N 53°24' E 014°37'0 0.0
2018-Jan-29 16:30N 53°24' E 014°37'0 0.0
2018-Jan-29 16:00N 53°24' E 014°37'0 0.0
2018-Jan-29 15:30N 53°24' E 014°37'0 0.0
2018-Jan-29 15:00N 53°24' E 014°37'0 0.0
2018-Jan-29 14:30N 53°24' E 014°37'0 0.0
2018-Jan-29 14:00N 53°24' E 014°37'0 0.0
2018-Jan-29 13:30N 53°24' E 014°37'0 0.0
2018-Jan-29 13:00N 53°24' E 014°37'0 0.0
2018-Jan-29 12:30N 53°24' E 014°37'0 0.0
2018-Jan-29 12:00N 53°24' E 014°37'0 0.0
2018-Jan-29 11:27N 53°24' E 014°37'0 0.1
2018-Jan-29 11:00N 53°24' E 014°37'0 0.0
2018-Jan-29 10:30N 53°24' E 014°37'0 0.0
2018-Jan-29 10:00N 53°24' E 014°37'0 0.0
2018-Jan-29 09:30N 53°24' E 014°37'0 0.0
2018-Jan-29 09:00N 53°24' E 014°37'0 0.0
2018-Jan-29 08:30N 53°24' E 014°37'0 0.0
2018-Jan-29 08:00N 53°24' E 014°37'0 0.0
2018-Jan-29 07:30N 53°24' E 014°37'0 0.0
2018-Jan-29 07:00N 53°24' E 014°37'0 0.0
2018-Jan-29 06:30N 53°24' E 014°37'0 0.0
2018-Jan-29 06:00N 53°24' E 014°37'0 0.0
2018-Jan-29 05:30N 53°24' E 014°37'0 0.0
2018-Jan-29 05:00N 53°24' E 014°37'0 0.0
2018-Jan-29 04:30N 53°24' E 014°37'0 0.0
2018-Jan-29 04:00N 53°24' E 014°37'0 0.0
2018-Jan-29 03:30N 53°24' E 014°37'0 0.0
2018-Jan-29 03:00N 53°24' E 014°37'0 0.0
2018-Jan-29 02:30N 53°24' E 014°37'0 0.0
2018-Jan-29 02:00N 53°24' E 014°37'0 0.0
2018-Jan-29 01:30N 53°24' E 014°37'0 0.0
2018-Jan-29 01:00N 53°24' E 014°37'0 0.0
2018-Jan-29 00:27N 53°24' E 014°37'0 0.0
2018-Jan-29 00:00N 53°24' E 014°37'0 0.0
2018-Jan-28 23:30N 53°24' E 014°37'0 0.0
2018-Jan-28 23:00N 53°24' E 014°37'0 0.0
2018-Jan-28 22:30N 53°24' E 014°37'0 0.0
2018-Jan-28 22:00N 53°24' E 014°37'0 0.0
2018-Jan-28 21:30N 53°24' E 014°37'0 0.0
2018-Jan-28 21:00N 53°24' E 014°37'0 0.0
2018-Jan-28 20:30N 53°24' E 014°37'0 0.0
2018-Jan-28 20:00N 53°24' E 014°37'0 0.0
2018-Jan-28 19:30N 53°24' E 014°37'0 0.0
2018-Jan-28 19:00N 53°24' E 014°37'0 0.0
2018-Jan-28 18:30N 53°24' E 014°37'0 0.0
2018-Jan-28 18:00N 53°24' E 014°37'0 0.0
2018-Jan-28 17:27N 53°24' E 014°37'0 0.0
2018-Jan-28 17:00N 53°24' E 014°37'0 0.0
2018-Jan-28 16:30N 53°24' E 014°37'0 0.0
2018-Jan-28 15:57N 53°24' E 014°37'0 0.0
2018-Jan-28 15:30N 53°24' E 014°37'0 0.0
2018-Jan-28 15:00N 53°24' E 014°37'0 0.0
2018-Jan-28 14:30N 53°24' E 014°37'0 0.0
2018-Jan-28 14:00N 53°24' E 014°37'0 0.0
2018-Jan-28 13:30N 53°24' E 014°37'0 0.0
2018-Jan-28 13:00N 53°24' E 014°37'0 0.0
2018-Jan-28 12:30N 53°24' E 014°37'0 0.0
2018-Jan-28 12:00N 53°24' E 014°37'0 0.0
2018-Jan-28 11:30N 53°24' E 014°37'0 0.0
2018-Jan-28 11:00N 53°24' E 014°37'0 0.0
2018-Jan-28 10:30N 53°24' E 014°37'0 0.0
2018-Jan-28 10:00N 53°24' E 014°37'0 0.0
2018-Jan-28 09:30N 53°24' E 014°37'0 0.0
2018-Jan-28 09:00N 53°24' E 014°37'0 0.0
2018-Jan-28 08:30N 53°24' E 014°37'0 0.0
2018-Jan-28 08:00N 53°24' E 014°37'0 0.0
2018-Jan-28 07:30N 53°24' E 014°37'0 0.0
2018-Jan-28 07:00N 53°24' E 014°37'0 0.0
2018-Jan-28 06:30N 53°24' E 014°37'0 0.0
2018-Jan-28 06:00N 53°24' E 014°37'0 0.0
2018-Jan-28 05:30N 53°24' E 014°37'0 0.0
2018-Jan-28 05:00N 53°24' E 014°37'0 0.0
2018-Jan-28 04:30N 53°24' E 014°37'0 0.0
2018-Jan-28 04:00N 53°24' E 014°37'0 0.0
2018-Jan-28 03:30N 53°24' E 014°37'0 0.0
2018-Jan-28 03:00N 53°24' E 014°37'0 0.0
2018-Jan-28 02:30N 53°24' E 014°37'0 0.0
2018-Jan-28 02:00N 53°24' E 014°37'0 0.0
2018-Jan-28 01:30N 53°24' E 014°37'0 0.0
2018-Jan-28 01:00N 53°24' E 014°37'0 0.0
2018-Jan-28 00:30N 53°24' E 014°37'0 0.0
2018-Jan-28 00:00N 53°24' E 014°37'0 0.0
2018-Jan-27 23:30N 53°24' E 014°37'0 0.0
2018-Jan-27 23:00N 53°24' E 014°37'0 0.0
2018-Jan-27 22:30N 53°24' E 014°37'0 0.0
2018-Jan-27 22:00N 53°24' E 014°37'0 0.0
2018-Jan-27 21:30N 53°24' E 014°37'0 0.0
2018-Jan-27 21:00N 53°24' E 014°37'0 0.0
2018-Jan-27 20:30N 53°24' E 014°37'0 0.0
2018-Jan-27 20:00N 53°24' E 014°37'0 0.0
2018-Jan-27 19:30N 53°24' E 014°37'0 0.0
2018-Jan-27 19:00N 53°24' E 014°37'0 0.0
2018-Jan-27 18:30N 53°24' E 014°37'0 0.0
2018-Jan-27 18:00N 53°24' E 014°37'0 0.0
2018-Jan-27 17:30N 53°24' E 014°37'0 0.0
2018-Jan-27 17:00N 53°24' E 014°37'0 0.0
2018-Jan-27 16:30N 53°24' E 014°37'0 0.0
2018-Jan-27 16:00N 53°24' E 014°37'0 0.0
2018-Jan-27 15:30N 53°24' E 014°37'0 0.0
2018-Jan-27 15:00N 53°24' E 014°37'0 0.0
2018-Jan-27 14:30N 53°24' E 014°37'0 0.0
2018-Jan-27 14:00N 53°24' E 014°37'0 0.0
2018-Jan-27 13:30N 53°24' E 014°37'0 0.0
2018-Jan-27 13:00N 53°24' E 014°37'0 0.0
2018-Jan-27 12:30N 53°24' E 014°37'0 0.0
2018-Jan-27 12:00N 53°24' E 014°37'0 0.0
2018-Jan-27 11:30N 53°25' E 014°37'0 0.0
2018-Jan-27 11:00N 53°25' E 014°37'0 0.0
2018-Jan-27 10:30N 53°25' E 014°37'0 0.0
2018-Jan-27 10:00N 53°25' E 014°37'0 0.0
2018-Jan-27 09:30N 53°25' E 014°37'0 0.0
2018-Jan-27 09:00N 53°25' E 014°37'0 0.0
2018-Jan-27 08:30N 53°25' E 014°37'0 0.0
2018-Jan-27 08:00N 53°25' E 014°37'0 0.0
2018-Jan-27 07:30N 53°24' E 014°37'0 0.0
2018-Jan-27 07:00N 53°25' E 014°37'0 0.0
2018-Jan-27 06:30N 53°25' E 014°37'0 0.0
2018-Jan-27 06:00N 53°25' E 014°37'0 0.0
2018-Jan-27 05:30N 53°25' E 014°37'0 0.0
2018-Jan-27 05:00N 53°25' E 014°37'0 0.0
2018-Jan-27 04:30N 53°25' E 014°37'0 0.0
2018-Jan-27 04:00N 53°25' E 014°37'0 0.0
2018-Jan-27 03:30N 53°25' E 014°37'0 0.0
2018-Jan-27 03:00N 53°25' E 014°37'0 0.0
2018-Jan-27 02:30N 53°25' E 014°37'0 0.0
2018-Jan-27 02:00N 53°25' E 014°37'0 0.0
2018-Jan-27 01:30N 53°25' E 014°37'0 0.0
2018-Jan-27 01:00N 53°24' E 014°37'0 0.0
2018-Jan-27 00:30N 53°24' E 014°37'0 0.0
2018-Jan-27 00:00N 53°24' E 014°37'0 0.0
2018-Jan-26 23:30N 53°25' E 014°37'0 0.0
2018-Jan-26 23:00N 53°25' E 014°37'0 0.0
2018-Jan-26 22:27N 53°25' E 014°37'0 0.0
2018-Jan-26 22:00N 53°24' E 014°37'0 0.0
2018-Jan-26 21:30N 53°25' E 014°37'0 0.0
2018-Jan-26 21:00N 53°25' E 014°37'0 0.0
2018-Jan-26 20:30N 53°25' E 014°37'0 0.0
2018-Jan-26 20:00N 53°25' E 014°37'1 2.5
2018-Jan-26 19:30N 53°26' E 014°36'4 7.4
2018-Jan-26 19:00N 53°29' E 014°37'4 7.6
2018-Jan-26 18:30N 53°33' E 014°36'510.0
2018-Jan-26 18:00N 53°38' E 014°34'510.5
2018-Jan-26 17:30N 53°42' E 014°29'61 9.8
2018-Jan-26 11:14N 54°43' E 014°41'415.4
2018-Jan-26 10:59N 54°46' E 014°45'613.3
2018-Jan-26 10:30N 54°49' E 014°55'815.0
2018-Jan-26 10:01N 54°54' E 015°04'815.1
2018-Jan-26 09:30N 55°00' E 015°12'714.0
2018-Jan-26 09:00N 55°06' E 015°19'713.9
2018-Jan-26 08:30N 55°12' E 015°26'713.7
2018-Jan-26 08:00N 55°17' E 015°34'713.6
2018-Jan-26 07:31N 55°23' E 015°41'714.1
2018-Jan-26 07:00N 55°28' E 015°48'815.5
2018-Jan-26 06:30N 55°35' E 015°56'815.4
2018-Jan-26 06:00N 55°41' E 016°04'815.3
2018-Jan-26 05:30N 55°47' E 016°12'815.2
2018-Jan-26 05:00N 55°53' E 016°20'815.1
2018-Jan-26 04:30N 55°59' E 016°28'714.9
2018-Jan-26 04:00N 56°05' E 016°36'714.6
2018-Jan-26 03:30N 56°10' E 016°46'815.2
2018-Jan-26 03:00N 56°18' E 016°49'815.2
2018-Jan-26 02:30N 56°25' E 016°53'12114.7
2018-Jan-25 18:16N 58°25' E 017°25'414.7
2018-Jan-25 18:00N 58°29' E 017°25'814.6
2018-Jan-25 17:28N 58°37' E 017°26'511.4
2018-Jan-25 17:00N 58°37' E 017°15'510.9
2018-Jan-25 16:30N 58°40' E 017°07'0 0.3
2018-Jan-25 16:00N 58°40' E 017°07'0 0.0
2018-Jan-25 15:30N 58°40' E 017°07'0 0.0
2018-Jan-25 15:00N 58°40' E 017°07'0 0.0
2018-Jan-25 14:30N 58°40' E 017°07'0 0.0
2018-Jan-25 14:00N 58°40' E 017°07'  

Dump ship's entire track history